Santa Cruz, Brazil
Current Conditions -  °F | °C
As of 12:00 AM on Saturday 01 Nov 2014 (Local Time) from SBPL Reporting Station
Clear Clear  
Wind Chill: 82°   Ceiling: Unl
Heat Index: 85°   Visibility: 6mi
Dew Point: 66°   Wind: 12mph
Humidity: 58%   Direction: 130°SE
Pressure: 29.97"   Gusts: NA
Location:  8.24°S, 40.33°W
Report Text: SBPL 010300Z 13010KT CAVOK 28/19 Q1015
Loading
Personal Weather Stations






























Interactive Weather Map
Tropical Storm Tracking
New forecast layout! Learn more

10-Day Weather Forecast

Advertisements
Track Severe Weather on mobile